sensor_id;sensor_type;location;lat;lon;timestamp;P1;durP1;ratioP1;P2;durP2;ratioP2
52354;SDS011;38286;51.156;17.038;2022-12-10T00:00:21;121.32;;;35.22;;
52354;SDS011;38286;51.156;17.038;2022-12-10T00:03:07;127.47;;;37.20;;
52354;SDS011;38286;51.156;17.038;2022-12-10T00:05:33;119.65;;;32.60;;
52354;SDS011;38286;51.156;17.038;2022-12-10T00:07:59;113.60;;;34.17;;
52354;SDS011;38286;51.156;17.038;2022-12-10T00:10:24;106.95;;;31.13;;
52354;SDS011;38286;51.156;17.038;2022-12-10T00:12:50;113.60;;;33.85;;
52354;SDS011;38286;51.156;17.038;2022-12-10T00:15:16;123.30;;;36.75;;
52354;SDS011;38286;51.156;17.038;2022-12-10T00:17:42;115.03;;;35.45;;
52354;SDS011;38286;51.156;17.038;2022-12-10T00:20:08;112.95;;;32.85;;
52354;SDS011;38286;51.156;17.038;2022-12-10T00:22:34;118.95;;;35.35;;
52354;SDS011;38286;51.156;17.038;2022-12-10T00:25:00;106.15;;;32.65;;
52354;SDS011;38286;51.156;17.038;2022-12-10T00:27:26;116.32;;;34.55;;
52354;SDS011;38286;51.156;17.038;2022-12-10T00:29:51;115.22;;;32.60;;
52354;SDS011;38286;51.156;17.038;2022-12-10T00:32:17;105.07;;;31.13;;
52354;SDS011;38286;51.156;17.038;2022-12-10T00:34:42;109.78;;;31.20;;
52354;SDS011;38286;51.156;17.038;2022-12-10T00:37:08;107.95;;;33.28;;
52354;SDS011;38286;51.156;17.038;2022-12-10T00:39:34;113.78;;;32.85;;
52354;SDS011;38286;51.156;17.038;2022-12-10T00:42:00;105.60;;;29.20;;
52354;SDS011;38286;51.156;17.038;2022-12-10T00:44:25;111.25;;;32.35;;
52354;SDS011;38286;51.156;17.038;2022-12-10T00:46:51;103.97;;;32.28;;
52354;SDS011;38286;51.156;17.038;2022-12-10T00:49:16;102.45;;;30.55;;
52354;SDS011;38286;51.156;17.038;2022-12-10T00:51:42;111.38;;;32.30;;
52354;SDS011;38286;51.156;17.038;2022-12-10T00:54:08;117.60;;;31.42;;
52354;SDS011;38286;51.156;17.038;2022-12-10T00:56:35;104.25;;;30.92;;
52354;SDS011;38286;51.156;17.038;2022-12-10T00:59:00;112.35;;;29.92;;
52354;SDS011;38286;51.156;17.038;2022-12-10T01:01:28;103.55;;;30.27;;
52354;SDS011;38286;51.156;17.038;2022-12-10T01:03:57;100.90;;;28.48;;
52354;SDS011;38286;51.156;17.038;2022-12-10T01:06:31;107.32;;;30.27;;
52354;SDS011;38286;51.156;17.038;2022-12-10T01:08:59;104.35;;;30.00;;
52354;SDS011;38286;51.156;17.038;2022-12-10T01:11:28;104.20;;;30.27;;
52354;SDS011;38286;51.156;17.038;2022-12-10T01:13:55;103.40;;;29.05;;
52354;SDS011;38286;51.156;17.038;2022-12-10T01:16:22;106.68;;;30.27;;
52354;SDS011;38286;51.156;17.038;2022-12-10T01:18:48;109.43;;;30.42;;
52354;SDS011;38286;51.156;17.038;2022-12-10T01:21:15;100.53;;;28.17;;
52354;SDS011;38286;51.156;17.038;2022-12-10T01:23:43;106.00;;;28.60;;
52354;SDS011;38286;51.156;17.038;2022-12-10T01:26:14;90.10;;;27.05;;
52354;SDS011;38286;51.156;17.038;2022-12-10T01:28:43;90.75;;;27.52;;
52354;SDS011;38286;51.156;17.038;2022-12-10T01:31:11;98.40;;;29.17;;
52354;SDS011;38286;51.156;17.038;2022-12-10T01:33:41;106.35;;;29.45;;
52354;SDS011;38286;51.156;17.038;2022-12-10T01:36:11;101.88;;;28.13;;
52354;SDS011;38286;51.156;17.038;2022-12-10T01:38:44;105.40;;;28.30;;
52354;SDS011;38286;51.156;17.038;2022-12-10T01:41:15;102.10;;;28.73;;
52354;SDS011;38286;51.156;17.038;2022-12-10T01:43:50;106.63;;;28.83;;
52354;SDS011;38286;51.156;17.038;2022-12-10T01:46:18;108.68;;;29.95;;
52354;SDS011;38286;51.156;17.038;2022-12-10T01:48:43;111.85;;;30.77;;
52354;SDS011;38286;51.156;17.038;2022-12-10T01:51:10;98.72;;;27.88;;
52354;SDS011;38286;51.156;17.038;2022-12-10T01:53:36;93.07;;;27.58;;
52354;SDS011;38286;51.156;17.038;2022-12-10T01:56:01;112.80;;;31.70;;
52354;SDS011;38286;51.156;17.038;2022-12-10T01:58:27;106.18;;;31.00;;
52354;SDS011;38286;51.156;17.038;2022-12-10T02:00:59;112.55;;;32.85;;
52354;SDS011;38286;51.156;17.038;2022-12-10T02:03:50;102.07;;;28.15;;
52354;SDS011;38286;51.156;17.038;2022-12-10T02:15:24;104.78;;;28.60;;
52354;SDS011;38286;51.156;17.038;2022-12-10T02:18:00;110.28;;;29.90;;
52354;SDS011;38286;51.156;17.038;2022-12-10T02:23:08;95.35;;;29.02;;
52354;SDS011;38286;51.156;17.038;2022-12-10T02:28:36;102.57;;;29.02;;
52354;SDS011;38286;51.156;17.038;2022-12-10T02:31:07;89.65;;;27.40;;
52354;SDS011;38286;51.156;17.038;2022-12-10T02:33:35;98.70;;;27.33;;
52354;SDS011;38286;51.156;17.038;2022-12-10T02:36:05;108.90;;;29.85;;
52354;SDS011;38286;51.156;17.038;2022-12-10T02:38:33;102.90;;;28.48;;
52354;SDS011;38286;51.156;17.038;2022-12-10T02:41:02;100.40;;;27.90;;
52354;SDS011;38286;51.156;17.038;2022-12-10T02:43:29;92.70;;;28.23;;
52354;SDS011;38286;51.156;17.038;2022-12-10T02:45:56;99.10;;;29.33;;
52354;SDS011;38286;51.156;17.038;2022-12-10T02:48:23;107.03;;;29.00;;
52354;SDS011;38286;51.156;17.038;2022-12-10T02:50:49;110.97;;;29.52;;
52354;SDS011;38286;51.156;17.038;2022-12-10T02:53:15;100.85;;;28.50;;
52354;SDS011;38286;51.156;17.038;2022-12-10T03:04:39;102.90;;;28.15;;
52354;SDS011;38286;51.156;17.038;2022-12-10T03:07:15;93.57;;;28.75;;
52354;SDS011;38286;51.156;17.038;2022-12-10T03:09:45;111.80;;;28.77;;
52354;SDS011;38286;51.156;17.038;2022-12-10T03:12:18;112.78;;;30.00;;
52354;SDS011;38286;51.156;17.038;2022-12-10T03:14:50;114.45;;;31.33;;
52354;SDS011;38286;51.156;17.038;2022-12-10T03:17:17;101.00;;;27.98;;
52354;SDS011;38286;51.156;17.038;2022-12-10T03:19:44;111.45;;;28.67;;
52354;SDS011;38286;51.156;17.038;2022-12-10T03:22:12;113.25;;;29.80;;
52354;SDS011;38286;51.156;17.038;2022-12-10T03:24:40;105.15;;;30.92;;
52354;SDS011;38286;51.156;17.038;2022-12-10T03:27:07;117.45;;;30.50;;
52354;SDS011;38286;51.156;17.038;2022-12-10T03:29:39;119.13;;;28.90;;
52354;SDS011;38286;51.156;17.038;2022-12-10T03:32:07;123.00;;;33.03;;
52354;SDS011;38286;51.156;17.038;2022-12-10T03:34:33;107.10;;;27.83;;
52354;SDS011;38286;51.156;17.038;2022-12-10T03:36:59;107.10;;;30.00;;
52354;SDS011;38286;51.156;17.038;2022-12-10T03:39:25;102.47;;;29.65;;
52354;SDS011;38286;51.156;17.038;2022-12-10T03:41:51;112.55;;;29.23;;
52354;SDS011;38286;51.156;17.038;2022-12-10T03:44:27;97.25;;;26.98;;
52354;SDS011;38286;51.156;17.038;2022-12-10T03:46:54;106.40;;;28.88;;
52354;SDS011;38286;51.156;17.038;2022-12-10T03:49:19;103.57;;;29.63;;
52354;SDS011;38286;51.156;17.038;2022-12-10T03:51:45;99.72;;;27.83;;
52354;SDS011;38286;51.156;17.038;2022-12-10T03:54:11;105.30;;;29.73;;
52354;SDS011;38286;51.156;17.038;2022-12-10T03:56:37;97.93;;;29.10;;
52354;SDS011;38286;51.156;17.038;2022-12-10T03:59:03;100.82;;;28.10;;
52354;SDS011;38286;51.156;17.038;2022-12-10T04:01:28;90.25;;;28.15;;
52354;SDS011;38286;51.156;17.038;2022-12-10T04:03:54;98.18;;;29.55;;
52354;SDS011;38286;51.156;17.038;2022-12-10T04:06:20;94.00;;;27.75;;
52354;SDS011;38286;51.156;17.038;2022-12-10T04:08:46;86.47;;;27.23;;
52354;SDS011;38286;51.156;17.038;2022-12-10T04:11:12;86.32;;;25.67;;
52354;SDS011;38286;51.156;17.038;2022-12-10T04:13:39;73.68;;;25.58;;
52354;SDS011;38286;51.156;17.038;2022-12-10T04:16:23;70.70;;;23.60;;
52354;SDS011;38286;51.156;17.038;2022-12-10T04:18:54;68.38;;;22.55;;
52354;SDS011;38286;51.156;17.038;2022-12-10T04:21:19;75.07;;;24.45;;
52354;SDS011;38286;51.156;17.038;2022-12-10T04:24:04;75.28;;;23.60;;
52354;SDS011;38286;51.156;17.038;2022-12-10T04:26:48;69.80;;;22.88;;
52354;SDS011;38286;51.156;17.038;2022-12-10T04:29:18;71.20;;;22.33;;
52354;SDS011;38286;51.156;17.038;2022-12-10T04:31:44;71.80;;;23.17;;
52354;SDS011;38286;51.156;17.038;2022-12-10T04:34:09;77.80;;;24.85;;
52354;SDS011;38286;51.156;17.038;2022-12-10T04:36:35;68.70;;;22.55;;
52354;SDS011;38286;51.156;17.038;2022-12-10T04:39:01;75.03;;;24.67;;
52354;SDS011;38286;51.156;17.038;2022-12-10T04:41:26;74.53;;;25.00;;
52354;SDS011;38286;51.156;17.038;2022-12-10T04:43:52;74.40;;;22.95;;
52354;SDS011;38286;51.156;17.038;2022-12-10T04:46:18;73.65;;;24.50;;
52354;SDS011;38286;51.156;17.038;2022-12-10T04:48:44;68.80;;;22.42;;
52354;SDS011;38286;51.156;17.038;2022-12-10T04:51:09;72.30;;;24.00;;
52354;SDS011;38286;51.156;17.038;2022-12-10T04:53:35;69.38;;;23.00;;
52354;SDS011;38286;51.156;17.038;2022-12-10T04:56:00;67.07;;;22.52;;
52354;SDS011;38286;51.156;17.038;2022-12-10T04:58:27;67.90;;;23.23;;
52354;SDS011;38286;51.156;17.038;2022-12-10T05:01:06;67.07;;;22.83;;
52354;SDS011;38286;51.156;17.038;2022-12-10T05:03:33;70.13;;;22.95;;
52354;SDS011;38286;51.156;17.038;2022-12-10T05:06:06;63.65;;;22.38;;
52354;SDS011;38286;51.156;17.038;2022-12-10T05:08:34;59.00;;;22.90;;
52354;SDS011;38286;51.156;17.038;2022-12-10T05:11:01;64.55;;;22.48;;
52354;SDS011;38286;51.156;17.038;2022-12-10T05:13:31;61.20;;;21.88;;
52354;SDS011;38286;51.156;17.038;2022-12-10T05:15:57;64.03;;;22.27;;
52354;SDS011;38286;51.156;17.038;2022-12-10T05:18:23;68.15;;;23.05;;
52354;SDS011;38286;51.156;17.038;2022-12-10T05:20:49;54.67;;;20.55;;
52354;SDS011;38286;51.156;17.038;2022-12-10T05:23:15;58.75;;;20.95;;
52354;SDS011;38286;51.156;17.038;2022-12-10T05:26:09;61.97;;;21.52;;
52354;SDS011;38286;51.156;17.038;2022-12-10T05:28:41;58.35;;;21.80;;
52354;SDS011;38286;51.156;17.038;2022-12-10T05:31:21;58.33;;;21.17;;
52354;SDS011;38286;51.156;17.038;2022-12-10T05:33:48;56.55;;;19.70;;
52354;SDS011;38286;51.156;17.038;2022-12-10T05:36:15;63.17;;;20.48;;
52354;SDS011;38286;51.156;17.038;2022-12-10T05:38:42;64.53;;;22.25;;
52354;SDS011;38286;51.156;17.038;2022-12-10T05:41:09;67.82;;;23.85;;
52354;SDS011;38286;51.156;17.038;2022-12-10T05:43:38;64.28;;;22.25;;
52354;SDS011;38286;51.156;17.038;2022-12-10T05:46:05;57.80;;;20.75;;
52354;SDS011;38286;51.156;17.038;2022-12-10T05:48:33;58.60;;;20.75;;
52354;SDS011;38286;51.156;17.038;2022-12-10T05:51:02;59.47;;;21.60;;
52354;SDS011;38286;51.156;17.038;2022-12-10T05:53:30;61.28;;;22.23;;
52354;SDS011;38286;51.156;17.038;2022-12-10T05:56:05;59.75;;;21.90;;
52354;SDS011;38286;51.156;17.038;2022-12-10T05:58:33;64.70;;;21.60;;
52354;SDS011;38286;51.156;17.038;2022-12-10T06:00:59;61.50;;;22.48;;
52354;SDS011;38286;51.156;17.038;2022-12-10T06:03:26;60.67;;;22.35;;
52354;SDS011;38286;51.156;17.038;2022-12-10T06:05:52;64.57;;;23.90;;
52354;SDS011;38286;51.156;17.038;2022-12-10T06:08:18;70.82;;;24.40;;
52354;SDS011;38286;51.156;17.038;2022-12-10T06:10:43;65.68;;;23.27;;
52354;SDS011;38286;51.156;17.038;2022-12-10T06:13:09;71.53;;;23.77;;
52354;SDS011;38286;51.156;17.038;2022-12-10T06:15:37;74.40;;;23.88;;
52354;SDS011;38286;51.156;17.038;2022-12-10T06:18:04;65.85;;;23.10;;
52354;SDS011;38286;51.156;17.038;2022-12-10T06:20:30;77.63;;;25.42;;
52354;SDS011;38286;51.156;17.038;2022-12-10T06:22:55;81.50;;;27.63;;
52354;SDS011;38286;51.156;17.038;2022-12-10T06:25:21;72.00;;;22.85;;
52354;SDS011;38286;51.156;17.038;2022-12-10T06:27:47;77.22;;;25.35;;
52354;SDS011;38286;51.156;17.038;2022-12-10T06:30:12;75.13;;;24.92;;
52354;SDS011;38286;51.156;17.038;2022-12-10T06:32:38;65.82;;;23.45;;
52354;SDS011;38286;51.156;17.038;2022-12-10T06:35:04;75.75;;;25.23;;
52354;SDS011;38286;51.156;17.038;2022-12-10T06:37:30;68.45;;;24.23;;
52354;SDS011;38286;51.156;17.038;2022-12-10T06:39:56;64.93;;;24.00;;
52354;SDS011;38286;51.156;17.038;2022-12-10T06:42:22;73.85;;;24.45;;
52354;SDS011;38286;51.156;17.038;2022-12-10T06:44:47;66.93;;;23.10;;
52354;SDS011;38286;51.156;17.038;2022-12-10T06:47:13;78.03;;;27.17;;
52354;SDS011;38286;51.156;17.038;2022-12-10T06:49:39;74.15;;;25.80;;
52354;SDS011;38286;51.156;17.038;2022-12-10T06:52:05;76.22;;;25.40;;
52354;SDS011;38286;51.156;17.038;2022-12-10T06:54:31;71.13;;;24.48;;
52354;SDS011;38286;51.156;17.038;2022-12-10T06:56:57;77.63;;;25.13;;
52354;SDS011;38286;51.156;17.038;2022-12-10T06:59:23;72.97;;;24.65;;
52354;SDS011;38286;51.156;17.038;2022-12-10T07:01:49;80.07;;;26.73;;
52354;SDS011;38286;51.156;17.038;2022-12-10T07:04:14;84.22;;;26.95;;
52354;SDS011;38286;51.156;17.038;2022-12-10T07:06:40;73.10;;;24.83;;
52354;SDS011;38286;51.156;17.038;2022-12-10T07:09:06;79.55;;;25.48;;
52354;SDS011;38286;51.156;17.038;2022-12-10T07:11:31;134.73;;;37.58;;
52354;SDS011;38286;51.156;17.038;2022-12-10T07:13:58;64.45;;;22.00;;
52354;SDS011;38286;51.156;17.038;2022-12-10T07:16:25;70.00;;;22.05;;
52354;SDS011;38286;51.156;17.038;2022-12-10T07:18:52;69.95;;;22.90;;
52354;SDS011;38286;51.156;17.038;2022-12-10T07:21:21;61.60;;;23.65;;
52354;SDS011;38286;51.156;17.038;2022-12-10T07:23:48;67.05;;;23.27;;
52354;SDS011;38286;51.156;17.038;2022-12-10T07:26:14;65.22;;;22.58;;
52354;SDS011;38286;51.156;17.038;2022-12-10T07:28:40;58.83;;;20.58;;
52354;SDS011;38286;51.156;17.038;2022-12-10T07:31:07;56.13;;;20.30;;
52354;SDS011;38286;51.156;17.038;2022-12-10T07:33:33;54.22;;;20.73;;
52354;SDS011;38286;51.156;17.038;2022-12-10T07:35:59;56.65;;;21.55;;
52354;SDS011;38286;51.156;17.038;2022-12-10T07:38:28;60.47;;;22.23;;
52354;SDS011;38286;51.156;17.038;2022-12-10T07:40:54;53.88;;;20.38;;
52354;SDS011;38286;51.156;17.038;2022-12-10T07:43:19;54.22;;;20.15;;
52354;SDS011;38286;51.156;17.038;2022-12-10T07:45:45;60.80;;;20.48;;
52354;SDS011;38286;51.156;17.038;2022-12-10T07:48:11;60.05;;;21.92;;
52354;SDS011;38286;51.156;17.038;2022-12-10T07:50:36;53.75;;;21.08;;
52354;SDS011;38286;51.156;17.038;2022-12-10T07:53:02;58.47;;;20.55;;
52354;SDS011;38286;51.156;17.038;2022-12-10T07:55:28;57.08;;;20.58;;
52354;SDS011;38286;51.156;17.038;2022-12-10T07:57:53;57.72;;;21.23;;
52354;SDS011;38286;51.156;17.038;2022-12-10T08:00:19;57.58;;;21.05;;
52354;SDS011;38286;51.156;17.038;2022-12-10T08:02:45;60.75;;;22.73;;
52354;SDS011;38286;51.156;17.038;2022-12-10T08:05:11;56.45;;;20.63;;
52354;SDS011;38286;51.156;17.038;2022-12-10T08:07:36;56.75;;;20.52;;
52354;SDS011;38286;51.156;17.038;2022-12-10T08:10:02;54.78;;;20.80;;
52354;SDS011;38286;51.156;17.038;2022-12-10T08:12:28;58.47;;;21.10;;
52354;SDS011;38286;51.156;17.038;2022-12-10T08:14:54;62.28;;;23.48;;
52354;SDS011;38286;51.156;17.038;2022-12-10T08:17:19;59.85;;;21.30;;
52354;SDS011;38286;51.156;17.038;2022-12-10T08:19:45;58.15;;;22.25;;
52354;SDS011;38286;51.156;17.038;2022-12-10T08:22:11;59.05;;;21.42;;
52354;SDS011;38286;51.156;17.038;2022-12-10T08:24:36;59.15;;;21.75;;
52354;SDS011;38286;51.156;17.038;2022-12-10T08:27:02;67.03;;;24.10;;
52354;SDS011;38286;51.156;17.038;2022-12-10T08:29:28;58.28;;;21.58;;
52354;SDS011;38286;51.156;17.038;2022-12-10T08:31:53;62.78;;;22.92;;
52354;SDS011;38286;51.156;17.038;2022-12-10T08:34:19;60.95;;;21.45;;
52354;SDS011;38286;51.156;17.038;2022-12-10T08:36:45;63.95;;;21.88;;
52354;SDS011;38286;51.156;17.038;2022-12-10T08:39:11;61.15;;;22.48;;
52354;SDS011;38286;51.156;17.038;2022-12-10T08:41:40;65.20;;;23.25;;
52354;SDS011;38286;51.156;17.038;2022-12-10T08:44:06;67.13;;;24.23;;
52354;SDS011;38286;51.156;17.038;2022-12-10T08:46:32;67.60;;;23.65;;
52354;SDS011;38286;51.156;17.038;2022-12-10T08:48:58;63.70;;;22.80;;
52354;SDS011;38286;51.156;17.038;2022-12-10T08:51:23;67.63;;;23.88;;
52354;SDS011;38286;51.156;17.038;2022-12-10T08:53:49;66.95;;;24.58;;
52354;SDS011;38286;51.156;17.038;2022-12-10T08:56:15;60.33;;;22.40;;
52354;SDS011;38286;51.156;17.038;2022-12-10T08:58:41;66.30;;;23.98;;
52354;SDS011;38286;51.156;17.038;2022-12-10T09:01:10;60.65;;;22.85;;
52354;SDS011;38286;51.156;17.038;2022-12-10T09:03:37;59.78;;;22.25;;
52354;SDS011;38286;51.156;17.038;2022-12-10T09:06:04;60.00;;;22.88;;
52354;SDS011;38286;51.156;17.038;2022-12-10T09:08:31;55.20;;;22.25;;
52354;SDS011;38286;51.156;17.038;2022-12-10T09:10:57;63.45;;;23.38;;
52354;SDS011;38286;51.156;17.038;2022-12-10T09:13:23;64.47;;;23.42;;
52354;SDS011;38286;51.156;17.038;2022-12-10T09:15:50;56.28;;;23.08;;
52354;SDS011;38286;51.156;17.038;2022-12-10T09:18:16;68.13;;;24.67;;
52354;SDS011;38286;51.156;17.038;2022-12-10T09:20:42;65.05;;;23.10;;
52354;SDS011;38286;51.156;17.038;2022-12-10T09:23:08;64.65;;;23.23;;
52354;SDS011;38286;51.156;17.038;2022-12-10T09:25:33;62.65;;;23.45;;
52354;SDS011;38286;51.156;17.038;2022-12-10T09:27:59;61.55;;;22.48;;
52354;SDS011;38286;51.156;17.038;2022-12-10T09:30:24;62.78;;;24.40;;
52354;SDS011;38286;51.156;17.038;2022-12-10T09:32:50;62.08;;;23.92;;
52354;SDS011;38286;51.156;17.038;2022-12-10T09:35:15;66.90;;;24.90;;
52354;SDS011;38286;51.156;17.038;2022-12-10T09:37:41;68.93;;;23.95;;
52354;SDS011;38286;51.156;17.038;2022-12-10T09:40:09;60.17;;;22.75;;
52354;SDS011;38286;51.156;17.038;2022-12-10T09:42:46;62.72;;;22.90;;
52354;SDS011;38286;51.156;17.038;2022-12-10T09:45:26;63.97;;;23.50;;
52354;SDS011;38286;51.156;17.038;2022-12-10T09:48:03;58.78;;;21.95;;
52354;SDS011;38286;51.156;17.038;2022-12-10T09:50:51;61.10;;;22.20;;
52354;SDS011;38286;51.156;17.038;2022-12-10T09:53:21;60.67;;;23.80;;
52354;SDS011;38286;51.156;17.038;2022-12-10T09:55:47;63.30;;;23.50;;
52354;SDS011;38286;51.156;17.038;2022-12-10T09:58:16;63.70;;;20.10;;
52354;SDS011;38286;51.156;17.038;2022-12-10T10:00:44;61.78;;;22.77;;
52354;SDS011;38286;51.156;17.038;2022-12-10T10:03:13;68.55;;;22.92;;
52354;SDS011;38286;51.156;17.038;2022-12-10T10:05:41;60.17;;;22.17;;
52354;SDS011;38286;51.156;17.038;2022-12-10T10:10:58;58.72;;;22.13;;
52354;SDS011;38286;51.156;17.038;2022-12-10T10:16:34;55.10;;;21.10;;
52354;SDS011;38286;51.156;17.038;2022-12-10T10:19:03;54.60;;;20.45;;
52354;SDS011;38286;51.156;17.038;2022-12-10T10:21:37;54.70;;;20.65;;
52354;SDS011;38286;51.156;17.038;2022-12-10T10:24:04;54.58;;;21.30;;
52354;SDS011;38286;51.156;17.038;2022-12-10T10:26:31;57.08;;;22.63;;
52354;SDS011;38286;51.156;17.038;2022-12-10T10:28:58;54.03;;;21.05;;
52354;SDS011;38286;51.156;17.038;2022-12-10T10:31:27;54.65;;;22.92;;
52354;SDS011;38286;51.156;17.038;2022-12-10T10:33:59;59.53;;;21.95;;
52354;SDS011;38286;51.156;17.038;2022-12-10T10:36:27;56.20;;;21.13;;
52354;SDS011;38286;51.156;17.038;2022-12-10T10:38:55;53.92;;;21.05;;
52354;SDS011;38286;51.156;17.038;2022-12-10T10:41:20;52.00;;;20.85;;
52354;SDS011;38286;51.156;17.038;2022-12-10T10:43:49;50.50;;;20.30;;
52354;SDS011;38286;51.156;17.038;2022-12-10T10:46:22;54.55;;;21.50;;
52354;SDS011;38286;51.156;17.038;2022-12-10T10:48:49;52.75;;;21.42;;
52354;SDS011;38286;51.156;17.038;2022-12-10T10:51:16;53.60;;;22.15;;
52354;SDS011;38286;51.156;17.038;2022-12-10T10:53:50;58.55;;;22.38;;
52354;SDS011;38286;51.156;17.038;2022-12-10T10:56:23;57.53;;;22.13;;
52354;SDS011;38286;51.156;17.038;2022-12-10T11:01:48;62.22;;;22.83;;
52354;SDS011;38286;51.156;17.038;2022-12-10T11:04:18;61.38;;;22.63;;
52354;SDS011;38286;51.156;17.038;2022-12-10T11:06:48;57.55;;;22.10;;
52354;SDS011;38286;51.156;17.038;2022-12-10T11:09:21;60.20;;;23.42;;
52354;SDS011;38286;51.156;17.038;2022-12-10T11:11:58;53.67;;;21.50;;
52354;SDS011;38286;51.156;17.038;2022-12-10T11:14:33;53.60;;;21.55;;
52354;SDS011;38286;51.156;17.038;2022-12-10T11:19:35;53.65;;;20.13;;
52354;SDS011;38286;51.156;17.038;2022-12-10T11:22:43;55.88;;;21.20;;
52354;SDS011;38286;51.156;17.038;2022-12-10T11:24:51;52.53;;;20.42;;
52354;SDS011;38286;51.156;17.038;2022-12-10T11:38:34;54.53;;;20.60;;
52354;SDS011;38286;51.156;17.038;2022-12-10T11:41:11;55.15;;;21.08;;
52354;SDS011;38286;51.156;17.038;2022-12-10T11:50:00;52.30;;;21.27;;
52354;SDS011;38286;51.156;17.038;2022-12-10T11:55:59;58.28;;;22.35;;
52354;SDS011;38286;51.156;17.038;2022-12-10T12:01:36;60.20;;;21.75;;
52354;SDS011;38286;51.156;17.038;2022-12-10T12:12:31;58.63;;;22.83;;
52354;SDS011;38286;51.156;17.038;2022-12-10T12:18:11;56.80;;;22.67;;
52354;SDS011;38286;51.156;17.038;2022-12-10T12:20:57;58.75;;;22.98;;
52354;SDS011;38286;51.156;17.038;2022-12-10T12:23:29;62.75;;;24.67;;
52354;SDS011;38286;51.156;17.038;2022-12-10T12:26:00;62.75;;;22.13;;
52354;SDS011;38286;51.156;17.038;2022-12-10T12:28:33;55.53;;;22.95;;
52354;SDS011;38286;51.156;17.038;2022-12-10T12:31:07;60.80;;;24.05;;
52354;SDS011;38286;51.156;17.038;2022-12-10T12:33:42;66.53;;;24.77;;
52354;SDS011;38286;51.156;17.038;2022-12-10T12:36:22;61.92;;;24.15;;
52354;SDS011;38286;51.156;17.038;2022-12-10T12:39:00;60.35;;;22.67;;
52354;SDS011;38286;51.156;17.038;2022-12-10T12:41:43;62.03;;;23.48;;
52354;SDS011;38286;51.156;17.038;2022-12-10T12:44:22;67.47;;;24.60;;
52354;SDS011;38286;51.156;17.038;2022-12-10T12:46:55;70.03;;;24.63;;
52354;SDS011;38286;51.156;17.038;2022-12-10T12:49:31;55.65;;;23.15;;
52354;SDS011;38286;51.156;17.038;2022-12-10T12:52:00;65.03;;;25.00;;
52354;SDS011;38286;51.156;17.038;2022-12-10T12:54:31;67.18;;;25.10;;
52354;SDS011;38286;51.156;17.038;2022-12-10T12:57:01;65.22;;;24.35;;
52354;SDS011;38286;51.156;17.038;2022-12-10T13:05:21;69.93;;;26.08;;
52354;SDS011;38286;51.156;17.038;2022-12-10T13:15:56;95.18;;;35.47;;
52354;SDS011;38286;51.156;17.038;2022-12-10T13:29:29;64.07;;;24.02;;
52354;SDS011;38286;51.156;17.038;2022-12-10T13:32:15;69.80;;;24.50;;
52354;SDS011;38286;51.156;17.038;2022-12-10T13:34:43;71.47;;;26.98;;
52354;SDS011;38286;51.156;17.038;2022-12-10T13:40:01;72.73;;;28.00;;
52354;SDS011;38286;51.156;17.038;2022-12-10T13:42:33;67.80;;;25.30;;
52354;SDS011;38286;51.156;17.038;2022-12-10T13:47:46;73.82;;;26.65;;
52354;SDS011;38286;51.156;17.038;2022-12-10T13:50:18;75.90;;;27.02;;
52354;SDS011;38286;51.156;17.038;2022-12-10T13:56:06;77.20;;;28.42;;
52354;SDS011;38286;51.156;17.038;2022-12-10T14:01:42;72.57;;;27.17;;
52354;SDS011;38286;51.156;17.038;2022-12-10T14:07:02;74.00;;;26.48;;
52354;SDS011;38286;51.156;17.038;2022-12-10T14:09:29;74.82;;;27.33;;
52354;SDS011;38286;51.156;17.038;2022-12-10T14:12:01;69.57;;;26.27;;
52354;SDS011;38286;51.156;17.038;2022-12-10T14:14:32;71.68;;;26.58;;
52354;SDS011;38286;51.156;17.038;2022-12-10T14:17:04;70.18;;;26.92;;
52354;SDS011;38286;51.156;17.038;2022-12-10T14:19:31;79.38;;;27.23;;
52354;SDS011;38286;51.156;17.038;2022-12-10T14:21:58;76.22;;;26.83;;
52354;SDS011;38286;51.156;17.038;2022-12-10T14:24:32;76.78;;;27.70;;
52354;SDS011;38286;51.156;17.038;2022-12-10T14:27:13;71.53;;;25.83;;
52354;SDS011;38286;51.156;17.038;2022-12-10T14:29:46;75.35;;;27.63;;
52354;SDS011;38286;51.156;17.038;2022-12-10T14:32:18;72.13;;;25.90;;
52354;SDS011;38286;51.156;17.038;2022-12-10T14:34:49;79.70;;;27.92;;
52354;SDS011;38286;51.156;17.038;2022-12-10T14:37:18;78.15;;;27.75;;
52354;SDS011;38286;51.156;17.038;2022-12-10T14:39:46;72.82;;;26.50;;
52354;SDS011;38286;51.156;17.038;2022-12-10T14:42:13;76.55;;;28.38;;
52354;SDS011;38286;51.156;17.038;2022-12-10T14:44:40;81.80;;;27.42;;
52354;SDS011;38286;51.156;17.038;2022-12-10T14:47:10;72.95;;;26.13;;
52354;SDS011;38286;51.156;17.038;2022-12-10T14:49:44;77.05;;;26.73;;
52354;SDS011;38286;51.156;17.038;2022-12-10T14:52:19;80.55;;;27.27;;
52354;SDS011;38286;51.156;17.038;2022-12-10T14:54:50;76.40;;;26.88;;
52354;SDS011;38286;51.156;17.038;2022-12-10T15:02:31;73.85;;;26.85;;
52354;SDS011;38286;51.156;17.038;2022-12-10T15:04:59;81.47;;;28.00;;
52354;SDS011;38286;51.156;17.038;2022-12-10T15:07:27;75.95;;;26.27;;
52354;SDS011;38286;51.156;17.038;2022-12-10T15:09:57;76.88;;;26.83;;
52354;SDS011;38286;51.156;17.038;2022-12-10T15:14:57;84.10;;;27.70;;
52354;SDS011;38286;51.156;17.038;2022-12-10T15:18:11;78.93;;;27.10;;
52354;SDS011;38286;51.156;17.038;2022-12-10T15:20:48;80.97;;;27.60;;
52354;SDS011;38286;51.156;17.038;2022-12-10T15:23:20;72.22;;;26.40;;
52354;SDS011;38286;51.156;17.038;2022-12-10T15:30:47;76.13;;;26.95;;
52354;SDS011;38286;51.156;17.038;2022-12-10T15:33:38;80.90;;;27.63;;
52354;SDS011;38286;51.156;17.038;2022-12-10T15:36:03;81.65;;;27.13;;
52354;SDS011;38286;51.156;17.038;2022-12-10T15:38:29;78.53;;;27.70;;
52354;SDS011;38286;51.156;17.038;2022-12-10T15:40:58;79.90;;;27.23;;
52354;SDS011;38286;51.156;17.038;2022-12-10T15:43:26;78.10;;;26.65;;
52354;SDS011;38286;51.156;17.038;2022-12-10T15:45:54;84.72;;;28.08;;
52354;SDS011;38286;51.156;17.038;2022-12-10T15:48:20;73.53;;;25.92;;
52354;SDS011;38286;51.156;17.038;2022-12-10T15:50:47;76.18;;;26.75;;
52354;SDS011;38286;51.156;17.038;2022-12-10T15:53:14;80.72;;;26.52;;
52354;SDS011;38286;51.156;17.038;2022-12-10T15:55:51;83.18;;;27.50;;
52354;SDS011;38286;51.156;17.038;2022-12-10T15:58:17;80.43;;;27.67;;
52354;SDS011;38286;51.156;17.038;2022-12-10T16:00:42;81.78;;;27.90;;
52354;SDS011;38286;51.156;17.038;2022-12-10T16:03:13;78.90;;;27.67;;
52354;SDS011;38286;51.156;17.038;2022-12-10T16:05:40;87.47;;;27.45;;
52354;SDS011;38286;51.156;17.038;2022-12-10T16:10:39;74.40;;;25.77;;
52354;SDS011;38286;51.156;17.038;2022-12-10T16:13:05;82.18;;;26.55;;
52354;SDS011;38286;51.156;17.038;2022-12-10T16:15:33;86.03;;;27.17;;
52354;SDS011;38286;51.156;17.038;2022-12-10T16:18:03;80.57;;;27.75;;
52354;SDS011;38286;51.156;17.038;2022-12-10T16:20:29;82.25;;;27.92;;